createdAt,value
2019-01-03T00:01:05.886Z,14.17
2019-01-03T00:06:32.317Z,13.33
2019-01-03T00:11:56.084Z,18.50
2019-01-03T00:17:19.106Z,13.90
2019-01-03T00:22:42.697Z,14.67
2019-01-03T00:28:06.826Z,13.20
2019-01-03T00:33:42.777Z,15.00
2019-01-03T00:38:56.870Z,12.67
2019-01-03T00:44:19.198Z,13.90
2019-01-03T00:49:54.359Z,15.23
2019-01-03T00:55:21.797Z,18.30
2019-01-03T01:00:43.278Z,15.53
2019-01-03T01:05:56.235Z,16.47
2019-01-03T01:11:18.688Z,12.37
2019-01-03T01:16:34.566Z,14.63
2019-01-03T01:21:57.304Z,12.30
2019-01-03T01:27:19.919Z,14.83
2019-01-03T01:32:46.239Z,11.60
2019-01-03T01:38:09.946Z,12.10
2019-01-03T01:43:45.760Z,16.13
2019-01-03T01:49:14.814Z,11.50
2019-01-03T01:54:37.123Z,11.10
2019-01-03T02:00:06.374Z,10.33
2019-01-03T02:05:30.390Z,11.77
2019-01-03T02:10:54.350Z,9.93
2019-01-03T02:16:16.823Z,18.43
2019-01-03T02:21:44.420Z,15.50
2019-01-03T02:27:07.358Z,16.53
2019-01-03T02:32:49.019Z,11.03
2019-01-03T02:38:27.417Z,14.00
2019-01-03T02:43:57.275Z,18.33
2019-01-03T02:49:21.061Z,21.40
2019-01-03T02:54:59.062Z,18.20
2019-01-03T03:00:23.454Z,12.00
2019-01-03T03:05:49.786Z,18.43
2019-01-03T03:11:12.783Z,10.27
2019-01-03T03:16:39.179Z,12.77
2019-01-03T03:22:00.996Z,15.70
2019-01-03T03:27:30.843Z,9.57
2019-01-03T03:32:53.640Z,11.73
2019-01-03T03:38:26.798Z,11.90
2019-01-03T03:43:49.221Z,9.40
2019-01-03T03:49:15.880Z,10.70
2019-01-03T03:54:38.578Z,9.70
2019-01-03T04:00:05.147Z,12.13
2019-01-03T04:05:29.117Z,5.47
2019-01-03T04:10:51.587Z,9.30
2019-01-03T04:16:14.376Z,9.37
2019-01-03T04:21:52.805Z,9.73
2019-01-03T04:27:22.838Z,6.20
2019-01-03T04:32:49.744Z,10.20
2019-01-03T04:38:16.513Z,7.70
2019-01-03T04:43:52.470Z,12.10
2019-01-03T04:49:16.373Z,5.67
2019-01-03T04:54:40.190Z,8.33
2019-01-03T05:00:16.445Z,8.20
2019-01-03T05:05:37.763Z,10.47
2019-01-03T05:11:00.447Z,10.37
2019-01-03T05:16:22.859Z,6.20
2019-01-03T05:21:55.837Z,10.53
2019-01-03T05:27:18.361Z,6.57
2019-01-03T05:32:41.086Z,7.57
2019-01-03T05:37:57.363Z,10.20
2019-01-03T05:43:19.790Z,9.03
2019-01-03T05:48:42.241Z,9.73
2019-01-03T05:54:02.283Z,12.00
2019-01-03T05:59:25.865Z,14.00
2019-01-03T06:04:49.537Z,8.20
2019-01-03T06:10:13.736Z,10.03
2019-01-03T06:15:49.654Z,7.97
2019-01-03T06:21:28.734Z,8.30
2019-01-03T06:27:01.374Z,13.17
2019-01-03T06:32:43.395Z,10.23
2019-01-03T06:38:06.065Z,6.67
2019-01-03T06:43:42.235Z,11.00
2019-01-03T06:49:16.236Z,8.80
2019-01-03T06:54:42.727Z,9.80
2019-01-03T07:00:18.931Z,11.63
2019-01-03T07:05:45.246Z,8.40
2019-01-03T07:11:02.976Z,8.07
2019-01-03T07:16:32.134Z,8.57
2019-01-03T07:21:47.475Z,11.33
2019-01-03T07:27:10.041Z,9.23
2019-01-03T07:32:32.666Z,9.33
2019-01-03T07:37:55.142Z,11.77
2019-01-03T07:43:19.785Z,9.60
2019-01-03T07:48:50.605Z,9.03
2019-01-03T07:54:26.686Z,5.27
2019-01-03T07:59:57.834Z,11.70
2019-01-03T08:05:20.439Z,10.00
2019-01-03T08:10:42.046Z,8.67
2019-01-03T08:16:19.766Z,5.80
2019-01-03T08:21:42.431Z,7.37
2019-01-03T08:27:05.264Z,10.33
2019-01-03T08:32:26.940Z,7.13
2019-01-03T08:37:50.505Z,7.23
2019-01-03T08:43:08.371Z,13.63
2019-01-03T08:48:34.766Z,10.53
2019-01-03T08:54:10.783Z,6.50
2019-01-03T08:59:33.668Z,19.83
2019-01-03T09:04:56.314Z,12.40
2019-01-03T09:10:29.058Z,8.63
2019-01-03T09:15:51.458Z,12.30
2019-01-03T09:21:27.563Z,9.97
2019-01-03T09:26:51.475Z,12.47
2019-01-03T09:32:24.154Z,10.50
2019-01-03T09:37:46.787Z,11.00
2019-01-03T09:43:09.293Z,7.73
2019-01-03T09:48:13.916Z,8.33
2019-01-03T09:53:18.378Z,8.13
2019-01-03T09:58:23.042Z,11.90
2019-01-03T10:03:27.934Z,14.47
2019-01-03T10:08:32.407Z,9.63
2019-01-03T10:13:36.958Z,11.43
2019-01-03T10:18:41.814Z,14.13
2019-01-03T10:23:46.343Z,11.77
2019-01-03T10:28:51.046Z,9.23
2019-01-03T10:33:55.546Z,8.20
2019-01-03T10:38:59.980Z,10.13
2019-01-03T10:44:04.551Z,10.77
2019-01-03T10:49:08.994Z,10.37
2019-01-03T10:54:13.659Z,12.23
2019-01-03T10:59:18.111Z,9.20
2019-01-03T11:04:22.638Z,10.13
2019-01-03T11:09:27.296Z,12.70
2019-01-03T11:14:32.764Z,10.67
2019-01-03T11:19:39.511Z,10.93
2019-01-03T11:24:44.002Z,12.70
2019-01-03T11:29:48.731Z,12.93
2019-01-03T11:34:53.380Z,7.50
2019-01-03T11:39:58.063Z,7.30
2019-01-03T11:45:02.678Z,9.87
2019-01-03T11:50:09.069Z,8.80
2019-01-03T11:55:13.757Z,5.33
2019-01-03T12:00:18.280Z,9.47
2019-01-03T12:05:24.331Z,7.13
2019-01-03T12:10:28.800Z,6.40
2019-01-03T12:15:33.311Z,9.03
2019-01-03T12:20:38.188Z,8.43
2019-01-03T12:25:42.642Z,13.40
2019-01-03T12:30:47.311Z,8.53
2019-01-03T12:35:51.880Z,8.13
2019-01-03T12:40:56.363Z,5.90
2019-01-03T12:46:01.024Z,7.20
2019-01-03T12:51:05.659Z,8.13
2019-01-03T12:56:10.262Z,6.30
2019-01-03T13:01:15.052Z,8.30
2019-01-03T13:06:21.170Z,9.70
2019-01-03T13:11:25.911Z,11.03
2019-01-03T13:16:30.350Z,11.53
2019-01-03T13:21:35.010Z,12.20
2019-01-03T13:26:39.690Z,17.60
2019-01-03T13:31:45.223Z,22.30
2019-01-03T13:36:50.019Z,13.20
2019-01-03T13:41:54.527Z,16.67
2019-01-03T13:46:59.062Z,15.80
2019-01-03T13:52:05.767Z,13.23
2019-01-03T13:57:10.352Z,9.87
2019-01-03T14:02:15.487Z,10.87
2019-01-03T14:07:20.218Z,10.13
2019-01-03T14:12:24.831Z,7.83
2019-01-03T14:17:29.566Z,10.70
2019-01-03T14:22:34.150Z,10.73
2019-01-03T14:27:41.131Z,8.00
2019-01-03T14:32:45.618Z,8.00
2019-01-03T14:37:50.167Z,6.03
2019-01-03T14:42:54.853Z,7.90
2019-01-03T14:47:59.815Z,7.33
2019-01-03T14:53:04.410Z,7.20
2019-01-03T14:58:08.978Z,9.73
2019-01-03T15:03:13.638Z,6.17
2019-01-03T15:08:20.307Z,6.40
2019-01-03T15:13:25.931Z,7.40
2019-01-03T15:18:31.593Z,7.97
2019-01-03T15:23:36.275Z,6.63
2019-01-03T15:28:41.038Z,6.33
2019-01-03T15:33:45.647Z,6.73
2019-01-03T15:38:50.393Z,11.10
2019-01-03T15:43:55.255Z,10.10
2019-01-03T15:49:00.502Z,14.78
2019-01-03T15:54:05.024Z,9.30
2019-01-03T15:59:09.766Z,7.27
2019-01-03T16:04:14.352Z,6.10
2019-01-03T16:09:18.841Z,5.80
2019-01-03T16:14:23.315Z,8.53
2019-01-03T16:19:28.200Z,8.80
2019-01-03T16:24:32.903Z,7.87
2019-01-03T16:29:38.762Z,5.93
2019-01-03T16:34:43.242Z,5.67
2019-01-03T16:39:48.015Z,4.97
2019-01-03T16:44:52.573Z,4.80
2019-01-03T16:49:57.438Z,8.50
2019-01-03T16:55:01.923Z,5.37
2019-01-03T17:00:08.152Z,5.80
2019-01-03T17:05:13.682Z,5.57
2019-01-03T17:10:19.742Z,10.10
2019-01-03T17:15:24.523Z,8.17
2019-01-03T17:20:29.409Z,8.23
2019-01-03T17:25:34.160Z,8.37
2019-01-03T17:30:39.107Z,6.13
2019-01-03T17:35:43.935Z,8.07
2019-01-03T17:40:48.510Z,9.57
2019-01-03T17:45:53.385Z,7.57
2019-01-03T17:50:58.022Z,6.07
2019-01-03T17:56:02.595Z,11.37
2019-01-03T18:01:07.398Z,9.10
2019-01-03T18:06:11.932Z,10.23
2019-01-03T18:11:16.441Z,7.90
2019-01-03T18:16:21.115Z,10.93
2019-01-03T18:21:25.718Z,9.40
2019-01-03T18:26:30.334Z,7.60
2019-01-03T18:31:34.855Z,6.40
2019-01-03T18:36:39.343Z,11.53
2019-01-03T18:41:43.866Z,11.37
2019-01-03T18:46:48.659Z,7.87
2019-01-03T18:51:53.127Z,6.83
2019-01-03T18:56:57.818Z,7.97
2019-01-03T19:02:02.342Z,10.77
2019-01-03T19:07:06.880Z,9.33
2019-01-03T19:12:11.658Z,8.43
2019-01-03T19:17:16.088Z,8.50
2019-01-03T19:22:21.082Z,9.83
2019-01-03T19:27:25.618Z,10.77
2019-01-03T19:32:30.534Z,8.13
2019-01-03T19:37:35.062Z,9.70
2019-01-03T19:42:39.874Z,7.30
2019-01-03T19:47:44.706Z,6.47
2019-01-03T19:52:49.162Z,7.27
2019-01-03T19:57:56.778Z,7.13
2019-01-03T20:03:01.446Z,6.10
2019-01-03T20:08:06.274Z,5.80
2019-01-03T20:13:10.803Z,5.13
2019-01-03T20:18:15.582Z,9.40
2019-01-03T20:23:20.641Z,5.97
2019-01-03T20:28:25.279Z,6.80
2019-01-03T20:33:29.905Z,4.33
2019-01-03T20:38:34.616Z,8.80
2019-01-03T20:43:39.305Z,7.60
2019-01-03T20:48:46.783Z,6.27
2019-01-03T20:53:51.291Z,7.30
2019-01-03T20:58:55.823Z,10.17
2019-01-03T21:04:00.463Z,5.40
2019-01-03T21:09:05.759Z,8.03
2019-01-03T21:14:10.232Z,8.23
2019-01-03T21:19:14.804Z,7.70
2019-01-03T21:24:19.422Z,6.27
2019-01-03T21:29:24.362Z,6.37
2019-01-03T21:34:30.062Z,7.00
2019-01-03T21:39:34.752Z,6.83
2019-01-03T21:44:39.243Z,5.40
2019-01-03T21:49:43.854Z,5.90
2019-01-03T21:54:48.350Z,4.40
2019-01-03T21:59:52.902Z,4.77
2019-01-03T22:05:00.951Z,6.77
2019-01-03T22:10:07.315Z,5.37
2019-01-03T22:15:11.913Z,7.30
2019-01-03T22:20:16.543Z,6.57
2019-01-03T22:25:21.194Z,4.97
2019-01-03T22:30:26.068Z,5.33
2019-01-03T22:35:30.759Z,5.83
2019-01-03T22:40:35.303Z,5.10
2019-01-03T22:45:39.770Z,4.43
2019-01-03T22:50:44.206Z,3.97
2019-01-03T22:55:50.867Z,5.30
2019-01-03T23:00:57.186Z,5.47
2019-01-03T23:06:01.836Z,5.07
2019-01-03T23:11:06.358Z,5.50
2019-01-03T23:16:10.942Z,6.07
2019-01-03T23:21:15.440Z,7.80
2019-01-03T23:26:19.907Z,8.83
2019-01-03T23:31:24.675Z,5.10
2019-01-03T23:36:29.379Z,4.13
2019-01-03T23:41:34.275Z,4.83
2019-01-03T23:46:39.819Z,4.77
2019-01-03T23:51:47.711Z,6.43
2019-01-03T23:56:52.302Z,4.63
